Time;durP1;ratioP1;P1;durP2;ratioP2;P2;SDS_P1;SDS_P2;PMS_P1;PMS_P2;Temp;Humidity;BMP_temperature;BMP_pressure;BME280_temperature;BME280_humidity;BME280_pressure;Samples;Min_cycle;Max_cycle;Signal;HPM_P1;HPM_P2
2021/08/04 00:01:47;;;;;;;;;;;;;;;-144.99;73.02;52338.03;5104426;28;20031;-74
2021/08/04 00:04:13;;;;;;;;;;;;;;;-144.99;72.93;52342.09;5104380;28;19931;-75
2021/08/04 00:06:40;;;;;;;;;;;;;;;-144.99;73.13;52342.09;5103614;28;19923;-76
2021/08/04 00:09:08;;;;;;;;;;;;;;;-144.99;73.27;52358.41;5104511;28;19934;-76
2021/08/04 00:11:34;;;;;;;;;;;;;;;-144.99;73.45;52336.00;5105388;28;19920;-76
2021/08/04 00:14:01;;;;;;;;;;;;;;;-144.99;73.86;52346.19;5105019;28;20047;-76
2021/08/04 00:16:27;;;;;;;;;;;;;;;-144.99;73.66;52338.03;5104115;28;19930;-75
2021/08/04 00:18:53;;;;;;;;;;;;;;;-144.99;73.90;52346.19;5104386;28;19934;-75
2021/08/04 00:21:20;;;;;;;;;;;;;;;-144.99;73.57;52354.34;5094425;28;19931;-75
2021/08/04 00:23:46;;;;;;;;;;;;;;;-144.99;73.97;52366.56;5104760;28;19931;-74
2021/08/04 00:26:14;;;;;;;;;;;;;;;-144.99;73.90;52338.03;5104949;28;20386;-74
2021/08/04 00:28:40;;;;;;;;;;;;;;;-144.99;74.11;52354.34;5103614;28;20398;-72
2021/08/04 00:31:06;;;;;;;;;;;;;;;-144.99;74.09;52342.09;5103896;28;19934;-72
2021/08/04 00:33:33;;;;;;;;;;;;;;;-144.99;74.29;52325.81;5104747;28;19919;-74
2021/08/04 00:35:59;;;;;;;;;;;;;;;-144.99;74.20;52329.88;5096924;28;19928;-74
2021/08/04 00:38:25;;;;;;;;;;;;;;;-144.99;74.32;52333.94;5104307;28;20070;-74
2021/08/04 00:40:51;;;;;;;;;;;;;;;-144.99;74.43;52354.34;5102983;28;19923;-74
2021/08/04 00:43:19;;;;;;;;;;;;;;;-144.99;74.61;52319.69;5105088;28;20318;-74
2021/08/04 00:45:46;;;;;;;;;;;;;;;-144.99;74.59;52348.22;5103094;28;19923;-74
2021/08/04 00:48:12;;;;;;;;;;;;;;;-144.99;74.78;52350.25;5104841;28;20525;-74
2021/08/04 00:50:38;;;;;;;;;;;;;;;-144.99;74.82;52319.69;5101940;28;19973;-73
2021/08/04 00:53:18;;;;;;;;;;;;;;;-144.99;74.99;52319.69;5103683;28;19923;-73
2021/08/04 00:55:44;;;;;;;;;;;;;;;-144.99;74.96;52376.75;5103882;28;20449;-75
2021/08/04 00:58:10;;;;;;;;;;;;;;;-144.99;74.82;52358.41;5102117;28;19936;-74
2021/08/04 01:00:39;;;;;;;;;;;;;;;-144.99;75.17;52354.34;5102665;28;19930;-75
2021/08/04 01:03:08;;;;;;;;;;;;;;;-144.99;75.57;52374.72;5104104;28;19920;-74
2021/08/04 01:05:37;;;;;;;;;;;;;;;-144.99;75.63;52333.94;5103128;28;19924;-74
2021/08/04 01:08:06;;;;;;;;;;;;;;;-144.99;75.90;52338.03;5104571;28;20029;-74
2021/08/04 01:10:34;;;;;;;;;;;;;;;-144.99;76.08;52325.81;5102494;28;20306;-73
2021/08/04 01:13:06;;;;;;;;;;;;;;;-144.99;76.13;52362.50;5095829;28;19924;-74
2021/08/04 01:15:35;;;;;;;;;;;;;;;-144.99;76.33;52395.09;5113761;28;19923;-74
2021/08/04 01:18:04;;;;;;;;;;;;;;;-144.99;76.50;52321.72;5125010;28;19923;-74
2021/08/04 01:20:31;;;;;;;;;;;;;;;-144.99;76.38;52346.19;5091687;28;20358;-73
2021/08/04 01:23:04;;;;;;;;;;;;;;;-144.99;76.43;52327.84;5096763;28;20420;-74
2021/08/04 01:25:33;;;;;;;;;;;;;;;-144.99;76.89;52356.38;5104463;28;20421;-74
2021/08/04 01:30:55;;;;;;;;;;;;;;;-144.99;77.06;52329.88;5104215;27;19916;-61
2021/08/04 01:33:23;;;;;;;;;;;;;;;-144.99;77.25;52317.66;5105186;28;20002;-60
2021/08/04 01:35:50;;;;;;;;;;;;;;;-144.99;77.01;52350.25;5095335;28;19967;-61
2021/08/04 01:38:18;;;;;;;;;;;;;;;-144.99;77.28;52333.94;5087966;28;19992;-60
2021/08/04 01:40:47;;;;;;;;;;;;;;;-144.99;77.05;52325.81;5084674;28;20143;-61
2021/08/04 01:43:13;;;;;;;;;;;;;;;-144.99;77.54;52362.50;4733502;28;10000404;-61
2021/08/04 01:45:40;;;;;;;;;;;;;;;-144.99;77.78;52366.56;5098117;28;19928;-60
2021/08/04 01:48:09;;;;;;;;;;;;;;;-144.99;78.22;52354.34;5104391;28;19989;-60
2021/08/04 01:50:36;;;;;;;;;;;;;;;-144.99;78.27;52350.25;5103718;28;19939;-61
2021/08/04 01:53:02;;;;;;;;;;;;;;;-144.99;78.17;52354.34;5092024;28;19924;-60
2021/08/04 01:55:29;;;;;;;;;;;;;;;-144.99;78.46;52358.41;5085213;28;19924;-60
2021/08/04 01:57:55;;;;;;;;;;;;;;;-144.99;78.77;52354.34;5086544;28;19924;-60
2021/08/04 02:00:21;;;;;;;;;;;;;;;-144.99;78.80;52346.19;5083469;28;19987;-60
2021/08/04 02:02:48;;;;;;;;;;;;;;;-144.99;79.20;52333.94;5086206;28;19931;-60
2021/08/04 02:05:15;;;;;;;;;;;;;;;-144.99;79.16;52325.81;5082156;28;20568;-60
2021/08/04 02:07:50;;;;;;;;;;;;;;;-144.99;79.29;52329.88;5088127;28;19959;-61
2021/08/04 02:10:20;;;;;;;;;;;;;;;-144.99;79.50;52346.19;5085803;28;19999;-60
2021/08/04 02:12:51;;;;;;;;;;;;;;;-144.99;79.62;52342.09;5086906;28;19924;-60
2021/08/04 02:15:19;;;;;;;;;;;;;;;-144.99;79.53;52360.44;5086940;28;20069;-60
2021/08/04 02:17:47;;;;;;;;;;;;;;;-144.99;79.75;52366.56;5084953;28;19997;-60
2021/08/04 02:20:18;;;;;;;;;;;;;;;-144.99;79.83;52333.94;5087989;28;20416;-60
2021/08/04 02:22:48;;;;;;;;;;;;;;;-144.99;80.12;52374.72;5086862;28;20223;-60
2021/08/04 02:25:16;;;;;;;;;;;;;;;-144.99;80.50;52333.94;5095545;28;19947;-61
2021/08/04 02:27:43;;;;;;;;;;;;;;;-144.99;80.19;52350.25;5099182;28;19931;-59
2021/08/04 02:30:11;;;;;;;;;;;;;;;-144.99;80.49;52325.81;5109449;28;19930;-59
2021/08/04 02:32:37;;;;;;;;;;;;;;;-144.99;80.52;52329.88;5107284;28;19953;-59
2021/08/04 02:35:04;;;;;;;;;;;;;;;-144.99;80.91;52376.75;5096321;22;20354;-58
2021/08/04 02:37:31;;;;;;;;;;;;;;;-144.99;80.70;52354.34;5065173;28;19931;-60
2021/08/04 02:39:59;;;;;;;;;;;;;;;-144.99;80.70;52358.41;5063153;28;19960;-60
2021/08/04 02:42:26;;;;;;;;;;;;;;;-144.99;80.80;52342.09;5034738;28;19925;-60
2021/08/04 02:44:52;;;;;;;;;;;;;;;-144.99;80.90;52370.63;5039908;28;20282;-61
2021/08/04 02:47:19;;;;;;;;;;;;;;;-144.99;80.81;52317.66;5049127;28;19925;-60
2021/08/04 02:49:45;;;;;;;;;;;;;;;-144.99;80.94;52336.00;5044808;28;19984;-61
2021/08/04 02:52:13;;;;;;;;;;;;;;;-144.99;81.20;52333.94;5048387;28;19958;-59
2021/08/04 02:54:43;;;;;;;;;;;;;;;-144.99;81.53;52340.06;5043930;28;20275;-60
2021/08/04 02:57:10;;;;;;;;;;;;;;;-144.99;81.84;52358.41;5038209;28;19949;-59
2021/08/04 02:59:37;;;;;;;;;;;;;;;-144.99;81.59;52354.34;5042264;28;20385;-59
2021/08/04 03:02:04;;;;;;;;;;;;;;;-144.99;81.79;52382.88;5057030;28;19924;-59
2021/08/04 03:04:30;;;;;;;;;;;;;;;-144.99;82.00;52325.81;5054781;28;19932;-60
2021/08/04 03:06:56;;;;;;;;;;;;;;;-144.99;81.83;52352.28;5049369;28;19939;-60
2021/08/04 03:09:23;;;;;;;;;;;;;;;-144.99;81.84;52370.63;5034931;28;19925;-59
2021/08/04 03:11:49;;;;;;;;;;;;;;;-144.99;82.10;52342.09;5035720;28;19925;-60
2021/08/04 03:14:17;;;;;;;;;;;;;;;-144.99;82.02;52338.03;5042043;28;19932;-61
2021/08/04 03:16:44;;;;;;;;;;;;;;;-144.99;82.13;52329.88;5033833;28;19945;-60
2021/08/04 03:19:11;;;;;;;;;;;;;;;-144.99;82.33;52358.41;5043189;28;19964;-59
2021/08/04 03:21:37;;;;;;;;;;;;;;;-144.99;82.14;52378.78;5043651;28;20432;-60
2021/08/04 03:24:04;;;;;;;;;;;;;;;-144.99;82.34;52354.34;5049136;28;19948;-61
2021/08/04 03:26:30;;;;;;;;;;;;;;;-144.99;82.56;52313.56;5037273;28;19932;-60
2021/08/04 03:28:57;;;;;;;;;;;;;;;-144.99;82.50;52346.19;5045793;28;19959;-60
2021/08/04 03:31:24;;;;;;;;;;;;;;;-144.99;82.26;52374.72;5046565;28;20159;-59
2021/08/04 03:33:51;;;;;;;;;;;;;;;-144.99;82.27;52321.72;5031159;28;19932;-60
2021/08/04 03:36:17;;;;;;;;;;;;;;;-144.99;82.23;52317.66;5041040;28;19978;-58
2021/08/04 03:38:43;;;;;;;;;;;;;;;-144.99;82.16;52358.41;5053763;28;19964;-58
2021/08/04 03:41:10;;;;;;;;;;;;;;;-144.99;82.27;52313.56;5044461;28;20397;-58
2021/08/04 03:43:36;;;;;;;;;;;;;;;-144.99;82.13;52342.09;5035201;28;19925;-57
2021/08/04 03:46:03;;;;;;;;;;;;;;;-144.99;82.13;52354.34;5030262;28;19950;-57
2021/08/04 03:48:30;;;;;;;;;;;;;;;-144.99;82.27;52366.56;5033369;28;19957;-58
2021/08/04 03:50:57;;;;;;;;;;;;;;;-144.99;82.49;52364.53;5029647;28;19926;-57
2021/08/04 03:53:23;;;;;;;;;;;;;;;-144.99;82.44;52352.28;5032104;28;20344;-57
2021/08/04 03:55:49;;;;;;;;;;;;;;;-144.99;82.46;52354.34;5051790;28;19925;-57
2021/08/04 03:58:16;;;;;;;;;;;;;;;-144.99;82.60;52346.19;5049643;28;20196;-56
2021/08/04 04:00:43;;;;;;;;;;;;;;;-144.99;82.66;52350.25;5048847;28;19997;-57
2021/08/04 04:03:10;;;;;;;;;;;;;;;-144.99;82.60;52354.34;5061764;28;20113;-57
2021/08/04 04:05:38;;;;;;;;;;;;;;;-144.99;82.91;52338.03;5041845;28;19947;-57
2021/08/04 04:08:04;;;;;;;;;;;;;;;-144.99;82.83;52333.94;5033725;28;20050;-58
2021/08/04 04:10:31;;;;;;;;;;;;;;;-144.99;82.67;52362.50;5049257;28;20385;-57
2021/08/04 04:12:57;;;;;;;;;;;;;;;-144.99;82.62;52317.66;5039300;28;19964;-58
2021/08/04 04:15:23;;;;;;;;;;;;;;;-144.99;82.33;52309.50;5037309;28;20310;-58
2021/08/04 04:17:50;;;;;;;;;;;;;;;-144.99;82.60;52374.72;5040331;28;20440;-58
2021/08/04 04:20:16;;;;;;;;;;;;;;;-144.99;82.66;52346.19;5039368;28;19959;-57
2021/08/04 04:22:44;;;;;;;;;;;;;;;-144.99;82.23;52358.41;5047197;28;20037;-58
2021/08/04 04:25:11;;;;;;;;;;;;;;;-144.99;82.21;52338.03;5031184;28;19925;-59
2021/08/04 04:27:37;;;;;;;;;;;;;;;-144.99;82.05;52338.03;5030813;28;19940;-59
2021/08/04 04:30:04;;;;;;;;;;;;;;;-144.99;82.02;52327.84;5046576;28;20332;-59
2021/08/04 04:32:30;;;;;;;;;;;;;;;-144.99;81.66;52323.75;5036510;28;19961;-60
2021/08/04 04:34:57;;;;;;;;;;;;;;;-144.99;81.68;52295.22;5029634;28;19977;-59
2021/08/04 04:37:23;;;;;;;;;;;;;;;-144.99;81.67;52350.25;5050652;28;19924;-60
2021/08/04 04:39:51;;;;;;;;;;;;;;;-144.99;81.73;52309.50;5040773;28;19961;-59
2021/08/04 04:42:17;;;;;;;;;;;;;;;-144.99;81.61;52333.94;5029542;28;20171;-59
2021/08/04 04:44:44;;;;;;;;;;;;;;;-144.99;81.68;52366.56;5042090;28;20272;-59
2021/08/04 04:47:10;;;;;;;;;;;;;;;-144.99;81.46;52309.50;5035370;28;19933;-59
2021/08/04 04:49:36;;;;;;;;;;;;;;;-144.99;81.41;52350.25;5044624;28;19929;-59
2021/08/04 04:52:03;;;;;;;;;;;;;;;-144.99;81.74;52366.56;5035051;28;19925;-59
2021/08/04 04:54:29;;;;;;;;;;;;;;;-144.99;81.59;52325.81;5033771;28;20001;-59
2021/08/04 04:56:57;;;;;;;;;;;;;;;-144.99;81.54;52338.03;5040420;28;19975;-58
2021/08/04 04:59:23;;;;;;;;;;;;;;;-144.99;81.35;52333.94;5045495;28;20010;-58
2021/08/04 05:01:50;;;;;;;;;;;;;;;-144.99;81.49;52317.66;5058426;28;20317;-58
2021/08/04 05:04:16;;;;;;;;;;;;;;;-144.99;81.32;52342.09;5051884;28;21039;-58
2021/08/04 05:06:42;;;;;;;;;;;;;;;-144.99;81.26;52329.88;5048843;28;20349;-58
2021/08/04 05:09:09;;;;;;;;;;;;;;;-144.99;81.19;52305.41;5030264;28;20001;-58
2021/08/04 05:11:35;;;;;;;;;;;;;;;-144.99;81.40;52331.91;5037894;28;20003;-62
2021/08/04 05:14:03;;;;;;;;;;;;;;;-144.99;81.15;52321.72;5028832;28;19947;-62
2021/08/04 05:16:29;;;;;;;;;;;;;;;-144.99;81.18;52313.56;5048170;28;19981;-63
2021/08/04 05:18:56;;;;;;;;;;;;;;;-144.99;80.98;52352.28;5053972;28;20001;-62
2021/08/04 05:21:22;;;;;;;;;;;;;;;-144.99;80.61;52382.88;5042980;28;19987;-62
2021/08/04 05:23:48;;;;;;;;;;;;;;;-144.99;80.61;52325.81;5028710;28;19988;-62
2021/08/04 05:26:15;;;;;;;;;;;;;;;-144.99;80.43;52301.34;5045810;28;19956;-58
2021/08/04 05:28:41;;;;;;;;;;;;;;;-144.99;80.69;52313.56;5028517;28;19982;-59
2021/08/04 05:31:09;;;;;;;;;;;;;;;-144.99;80.76;52340.06;5034502;28;19989;-58
2021/08/04 05:33:35;;;;;;;;;;;;;;;-144.99;80.80;52293.19;5033470;28;19974;-58
2021/08/04 05:36:01;;;;;;;;;;;;;;;-144.99;80.72;52336.00;5043699;28;20070;-58
2021/08/04 05:38:28;;;;;;;;;;;;;;;-144.99;80.76;52327.84;5044220;28;20000;-58
2021/08/04 05:40:54;;;;;;;;;;;;;;;-144.99;80.45;52295.22;5050432;28;19987;-58
2021/08/04 05:43:20;;;;;;;;;;;;;;;-144.99;80.39;52309.50;5039701;28;20003;-59
2021/08/04 05:45:47;;;;;;;;;;;;;;;-144.99;80.40;52362.50;5042515;28;19981;-59
2021/08/04 05:48:14;;;;;;;;;;;;;;;-144.99;80.43;52309.50;5039140;28;19981;-59
2021/08/04 05:50:41;;;;;;;;;;;;;;;-144.99;80.31;52305.41;5039262;28;19999;-59
2021/08/04 05:53:07;;;;;;;;;;;;;;;-144.99;80.15;52299.31;5028519;28;20361;-59
2021/08/04 05:55:35;;;;;;;;;;;;;;;-144.99;80.27;52321.72;5047014;28;20002;-58
2021/08/04 05:58:01;;;;;;;;;;;;;;;-144.99;80.22;52309.50;5048159;28;19980;-59
2021/08/04 06:00:27;;;;;;;;;;;;;;;-144.99;79.97;52293.19;5054389;28;20450;-60
2021/08/04 06:02:54;;;;;;;;;;;;;;;-144.99;80.02;52301.34;5057516;28;20438;-59
2021/08/04 06:05:21;;;;;;;;;;;;;;;-144.99;79.99;52325.81;5046888;28;19977;-59
2021/08/04 06:07:48;;;;;;;;;;;;;;;-144.99;79.96;52329.88;5041809;28;19987;-62
2021/08/04 06:10:14;;;;;;;;;;;;;;;-144.99;79.94;52268.72;5043539;28;20087;-62
2021/08/04 06:12:40;;;;;;;;;;;;;;;-144.99;79.88;52327.84;5028990;28;19980;-61
2021/08/04 06:15:07;;;;;;;;;;;;;;;-144.99;80.10;52268.72;5029059;28;20007;-60
2021/08/04 06:17:33;;;;;;;;;;;;;;;-144.99;80.17;52289.13;5048810;28;19985;-58
2021/08/04 06:20:00;;;;;;;;;;;;;;;-144.99;80.11;52285.03;5039954;28;19996;-59
2021/08/04 06:22:28;;;;;;;;;;;;;;;-144.99;80.21;52285.03;5032194;28;20083;-58
2021/08/04 06:24:54;;;;;;;;;;;;;;;-144.99;80.26;52311.53;5032024;28;19984;-59
2021/08/04 06:27:20;;;;;;;;;;;;;;;-144.99;80.71;52305.41;5032070;28;20072;-58
2021/08/04 06:29:47;;;;;;;;;;;;;;;-144.99;80.94;52293.19;5031356;28;20080;-59
2021/08/04 06:32:13;;;;;;;;;;;;;;;-144.99;80.92;52280.97;5032122;28;19997;-60
2021/08/04 06:34:40;;;;;;;;;;;;;;;-144.99;80.96;52276.88;5032330;28;20192;-60
2021/08/04 06:37:06;;;;;;;;;;;;;;;-144.99;81.39;52317.66;5046079;28;19986;-60
2021/08/04 06:39:34;;;;;;;;;;;;;;;-144.99;81.46;52285.03;5040405;28;19965;-60
2021/08/04 06:42:01;;;;;;;;;;;;;;;-144.99;81.51;52285.03;5031906;28;19991;-61
2021/08/04 06:44:27;;;;;;;;;;;;;;;-144.99;81.72;52317.66;5031514;28;19981;-61
2021/08/04 06:46:57;;;;;;;;;;;;;;;-144.99;81.48;52276.88;5031802;28;19982;-61
2021/08/04 06:49:23;;;;;;;;;;;;;;;-144.99;81.56;52317.66;5031356;28;19997;-61
2021/08/04 06:51:50;;;;;;;;;;;;;;;-144.99;81.63;52315.59;5032406;28;20012;-65
2021/08/04 06:54:16;;;;;;;;;;;;;;;-144.99;81.79;52327.84;5034487;28;19991;-66
2021/08/04 06:56:44;;;;;;;;;;;;;;;-144.99;81.97;52333.94;5043206;28;19976;-63
2021/08/04 06:59:10;;;;;;;;;;;;;;;-144.99;81.93;52325.81;5042297;28;19992;-64
2021/08/04 07:01:37;;;;;;;;;;;;;;;-144.99;81.91;52285.03;5053220;28;19990;-64
2021/08/04 07:04:03;;;;;;;;;;;;;;;-144.99;81.98;52276.88;5055403;28;20374;-63
2021/08/04 07:06:29;;;;;;;;;;;;;;;-144.99;82.23;52329.88;5030651;28;20001;-63
2021/08/04 07:08:56;;;;;;;;;;;;;;;-144.99;81.68;52323.75;5031169;28;19996;-64
2021/08/04 07:11:23;;;;;;;;;;;;;;;-144.99;81.42;52321.72;5031101;28;20026;-61
2021/08/04 07:13:50;;;;;;;;;;;;;;;-144.99;81.50;52311.53;5031245;28;19984;-64
2021/08/04 07:16:18;;;;;;;;;;;;;;;-144.99;80.77;52254.47;5030823;28;20446;-63
2021/08/04 07:18:44;;;;;;;;;;;;;;;-144.99;80.59;52289.13;5055736;28;20053;-62
2021/08/04 07:21:11;;;;;;;;;;;;;;;-144.99;80.52;52260.56;5038287;28;20028;-62
2021/08/04 07:23:37;;;;;;;;;;;;;;;-144.99;80.37;52301.34;5031286;28;20357;-63
2021/08/04 07:26:04;;;;;;;;;;;;;;;-144.99;80.23;52256.50;5031353;28;20028;-67
2021/08/04 07:28:30;;;;;;;;;;;;;;;-144.99;80.11;52309.50;5031225;28;19997;-66
2021/08/04 07:30:58;;;;;;;;;;;;;;;-144.99;79.91;52244.28;5030084;28;20002;-67
2021/08/04 07:33:24;;;;;;;;;;;;;;;-144.99;80.13;52291.16;5050960;28;20071;-67
2021/08/04 07:35:50;;;;;;;;;;;;;;;-144.99;79.94;52264.66;5040432;28;19985;-67
2021/08/04 07:38:17;;;;;;;;;;;;;;;-144.99;79.72;52262.63;5049157;28;19996;-66
2021/08/04 07:40:43;;;;;;;;;;;;;;;-144.99;79.47;52276.88;5042440;28;19988;-66
2021/08/04 07:43:10;;;;;;;;;;;;;;;-144.99;79.87;52285.03;5031389;28;20039;-65
2021/08/04 07:45:36;;;;;;;;;;;;;;;-144.99;79.94;52256.50;5030872;28;20131;-67
2021/08/04 07:48:04;;;;;;;;;;;;;;;-144.99;79.83;52297.25;5035810;28;19980;-67
2021/08/04 07:50:31;;;;;;;;;;;;;;;-144.99;79.99;52297.25;5042083;28;19986;-66
2021/08/04 07:52:57;;;;;;;;;;;;;;;-144.99;79.95;52276.88;5030620;28;19987;-66
2021/08/04 07:55:23;;;;;;;;;;;;;;;-144.99;79.87;52252.44;5042691;28;20410;-66
2021/08/04 07:57:50;;;;;;;;;;;;;;;-144.99;79.53;52270.78;5041413;28;19983;-66
2021/08/04 08:00:16;;;;;;;;;;;;;;;-144.99;79.31;52260.56;5039634;28;20397;-67
2021/08/04 08:02:43;;;;;;;;;;;;;;;-144.99;79.28;52236.13;5043774;28;20469;-66
2021/08/04 08:05:11;;;;;;;;;;;;;;;-144.99;79.16;52301.34;5045160;28;19991;-65
2021/08/04 08:07:37;;;;;;;;;;;;;;;-144.99;79.16;52262.63;5035975;28;19972;-66
2021/08/04 08:10:04;;;;;;;;;;;;;;;-144.99;78.98;52293.19;5043483;28;20492;-66
2021/08/04 08:12:31;;;;;;;;;;;;;;;-144.99;79.01;52311.53;5030011;28;19995;-68
2021/08/04 08:14:57;;;;;;;;;;;;;;;-144.99;79.23;52293.19;5030158;28;20014;-66
2021/08/04 08:17:24;;;;;;;;;;;;;;;-144.99;78.91;52256.50;5043818;28;19982;-65
2021/08/04 08:19:50;;;;;;;;;;;;;;;-144.99;79.07;52264.66;5033093;28;20398;-66
2021/08/04 08:22:18;;;;;;;;;;;;;;;-144.99;78.86;52264.66;5043574;28;20422;-66
2021/08/04 08:24:44;;;;;;;;;;;;;;;-144.99;79.00;52278.91;5031313;28;19950;-69
2021/08/04 08:27:10;;;;;;;;;;;;;;;-144.99;78.83;52280.97;5030136;28;19980;-66
2021/08/04 08:29:36;;;;;;;;;;;;;;;-144.99;79.01;52262.63;5029646;28;20002;-66
2021/08/04 08:32:03;;;;;;;;;;;;;;;-144.99;79.23;52287.06;5029271;28;19996;-65
2021/08/04 08:37:10;;;;;;;;;;;;;;;-144.99;79.17;52264.66;5037034;28;19988;-73
2021/08/04 08:39:37;;;;;;;;;;;;;;;-144.99;79.02;52276.88;5041441;28;20048;-73
2021/08/04 08:42:04;;;;;;;;;;;;;;;-144.99;78.73;52260.56;5018229;28;19981;-73
2021/08/04 08:44:30;;;;;;;;;;;;;;;-144.99;78.12;52227.97;5014998;28;19981;-72
2021/08/04 08:46:57;;;;;;;;;;;;;;;-144.99;77.84;52280.97;5015236;28;19981;-73
2021/08/04 08:49:26;;;;;;;;;;;;;;;-144.99;77.80;52236.13;5020554;28;19996;-73
2021/08/04 08:51:53;;;;;;;;;;;;;;;-144.99;77.50;52280.97;5016488;28;19996;-72
2021/08/04 08:54:19;;;;;;;;;;;;;;;-144.99;77.17;52248.34;5018435;28;19980;-72
2021/08/04 08:56:47;;;;;;;;;;;;;;;-144.99;76.91;52244.28;5020880;28;19981;-72
2021/08/04 08:59:15;;;;;;;;;;;;;;;-144.99;76.37;52276.88;5024071;28;20040;-72
2021/08/04 09:01:42;;;;;;;;;;;;;;;-144.99;76.08;52250.38;5018368;28;20001;-72
2021/08/04 09:04:10;;;;;;;;;;;;;;;-144.99;75.33;52264.66;5038196;28;19948;-73
2021/08/04 09:06:41;;;;;;;;;;;;;;;-144.99;75.22;52215.75;5011704;28;19985;-73
2021/08/04 09:09:13;;;;;;;;;;;;;;;-144.99;74.71;52203.50;5010930;28;19988;-71
2021/08/04 09:11:39;;;;;;;;;;;;;;;-144.99;73.96;52252.44;5010843;28;19993;-73
2021/08/04 09:14:07;;;;;;;;;;;;;;;-144.99;73.36;52219.81;5025187;28;19963;-73
2021/08/04 09:16:33;;;;;;;;;;;;;;;-144.99;72.29;52215.75;5011088;28;20034;-73
2021/08/04 09:19:00;;;;;;;;;;;;;;;-144.99;72.26;52199.44;5020873;28;20085;-73
2021/08/04 09:21:26;;;;;;;;;;;;;;;-144.99;71.84;52217.78;5011065;28;19952;-73
2021/08/04 09:23:54;;;;;;;;;;;;;;;-144.99;71.81;52189.25;5010310;28;20328;-73
2021/08/04 09:26:21;;;;;;;;;;;;;;;-144.99;71.36;52223.88;5010291;28;20266;-72
2021/08/04 09:28:52;;;;;;;;;;;;;;;-144.99;71.02;52179.06;5010825;28;19973;-72
2021/08/04 09:31:21;;;;;;;;;;;;;;;-144.99;69.64;52227.97;5010068;28;19978;-73
2021/08/04 09:33:48;;;;;;;;;;;;;;;-144.99;69.75;52215.75;5006485;28;19950;-73
2021/08/04 09:36:25;;;;;;;;;;;;;;;-144.99;69.81;52246.31;5010493;28;20004;-73
2021/08/04 09:39:00;;;;;;;;;;;;;;;-144.99;69.61;52201.47;5022948;28;19974;-73
2021/08/04 09:41:26;;;;;;;;;;;;;;;-144.99;70.13;52227.97;5025918;28;19981;-73
2021/08/04 09:44:03;;;;;;;;;;;;;;;-144.99;70.46;52236.13;5018974;28;19959;-74
2021/08/04 09:46:31;;;;;;;;;;;;;;;-144.99;70.01;52244.28;4998973;28;20016;-73
2021/08/04 09:49:09;;;;;;;;;;;;;;;-144.99;70.19;52232.03;5012658;28;19969;-73
2021/08/04 09:51:36;;;;;;;;;;;;;;;-144.99;69.91;52244.28;5012132;28;19975;-72
2021/08/04 09:54:06;;;;;;;;;;;;;;;-144.99;70.01;52234.09;5014661;28;19949;-73
2021/08/04 09:56:32;;;;;;;;;;;;;;;-144.99;69.90;52232.03;5021566;28;19969;-73
2021/08/04 09:59:07;;;;;;;;;;;;;;;-144.99;68.91;52244.28;5011261;28;19967;-72
2021/08/04 10:01:40;;;;;;;;;;;;;;;-144.99;69.24;52232.03;5019644;28;19947;-73
2021/08/04 10:04:08;;;;;;;;;;;;;;;-144.99;69.36;52232.03;5021843;28;19966;-72
2021/08/04 10:06:34;;;;;;;;;;;;;;;-144.99;69.75;52238.16;5020800;28;19947;-72
2021/08/04 10:09:01;;;;;;;;;;;;;;;-144.99;69.75;52179.06;5014094;28;19980;-73
2021/08/04 10:11:28;;;;;;;;;;;;;;;-144.99;69.71;52217.78;5014351;28;19960;-73
2021/08/04 10:13:55;;;;;;;;;;;;;;;-144.99;69.59;52240.19;5014376;28;20421;-73
2021/08/04 10:16:22;;;;;;;;;;;;;;;-144.99;69.21;52219.81;5014223;28;19970;-72
2021/08/04 10:18:50;;;;;;;;;;;;;;;-144.99;68.84;52268.72;5014664;28;19975;-72
2021/08/04 10:21:17;;;;;;;;;;;;;;;-144.99;68.71;52187.19;5012604;28;20340;-72
2021/08/04 10:23:46;;;;;;;;;;;;;;;-144.99;68.18;52244.28;5013875;28;19986;-72
2021/08/04 10:26:13;;;;;;;;;;;;;;;-144.99;67.43;52246.31;5013474;28;19982;-71
2021/08/04 10:28:40;;;;;;;;;;;;;;;-144.99;66.52;52246.31;5018739;28;19984;-73
2021/08/04 10:31:09;;;;;;;;;;;;;;;-144.99;66.04;52193.31;5023271;28;20409;-73
2021/08/04 10:33:35;;;;;;;;;;;;;;;-144.99;65.54;52209.63;5013495;28;20003;-73
2021/08/04 10:36:06;;;;;;;;;;;;;;;-144.99;65.64;52191.28;5012997;28;19991;-72
2021/08/04 10:38:33;;;;;;;;;;;;;;;-144.99;64.87;52227.97;5017567;28;19975;-72
2021/08/04 10:41:09;;;;;;;;;;;;;;;-144.99;64.62;52211.66;5013185;28;19982;-73
2021/08/04 10:43:37;;;;;;;;;;;;;;;-144.99;63.91;52166.81;5013743;28;19960;-73
2021/08/04 10:46:23;;;;;;;;;;;;;;;-144.99;63.21;52158.66;5013157;28;19949;-73
2021/08/04 10:48:50;;;;;;;;;;;;;;;-144.99;62.74;52166.81;5013476;28;19993;-73
2021/08/04 10:51:19;;;;;;;;;;;;;;;-144.99;62.27;52170.91;5013453;28;19983;-72
2021/08/04 10:54:04;;;;;;;;;;;;;;;-144.99;61.68;52164.78;5013514;28;19973;-73
2021/08/04 10:56:45;;;;;;;;;;;;;;;-144.99;60.86;52183.13;5014097;28;19963;-72
2021/08/04 10:59:33;;;;;;;;;;;;;;;-144.99;59.89;52156.63;5012312;28;19988;-73
2021/08/04 11:02:14;;;;;;;;;;;;;;;-144.99;60.36;52183.13;5007879;28;19982;-72
2021/08/04 11:04:53;;;;;;;;;;;;;;;-144.99;59.96;52166.81;5012463;28;20363;-72
2021/08/04 11:07:21;;;;;;;;;;;;;;;-144.99;59.15;52199.44;5010576;28;19989;-72
2021/08/04 11:09:56;;;;;;;;;;;;;;;-144.99;58.88;52207.59;5012651;28;20382;-72
2021/08/04 11:12:23;;;;;;;;;;;;;;;-144.99;59.78;52187.19;5012575;28;20006;-73
2021/08/04 11:14:50;;;;;;;;;;;;;;;-144.99;59.08;52195.34;5012479;28;19962;-72
2021/08/04 11:17:17;;;;;;;;;;;;;;;-144.99;59.65;52223.88;5012707;28;19990;-72
2021/08/04 11:20:03;;;;;;;;;;;;;;;-144.99;59.70;52179.06;5024116;28;20003;-72
2021/08/04 11:22:32;;;;;;;;;;;;;;;-144.99;60.04;52183.13;5014208;28;20061;-73
2021/08/04 11:24:59;;;;;;;;;;;;;;;-144.99;60.10;52179.06;5025406;28;20080;-72
2021/08/04 11:27:27;;;;;;;;;;;;;;;-144.99;59.27;52191.28;5012791;28;20022;-72
2021/08/04 11:29:55;;;;;;;;;;;;;;;-144.99;59.41;52181.09;5010888;28;19958;-73
2021/08/04 11:32:22;;;;;;;;;;;;;;;-144.99;59.42;52203.50;5016907;28;19984;-72
2021/08/04 11:34:48;;;;;;;;;;;;;;;-144.99;58.80;52223.88;5012754;28;19972;-72
2021/08/04 11:37:15;;;;;;;;;;;;;;;-144.99;58.59;52219.81;5011409;28;19976;-72
2021/08/04 11:39:54;;;;;;;;;;;;;;;-144.99;58.34;52174.97;5016968;28;20380;-72
2021/08/04 11:42:20;;;;;;;;;;;;;;;-144.99;57.67;52207.59;5000090;28;20158;-72
2021/08/04 11:44:47;;;;;;;;;;;;;;;-144.99;57.53;52174.97;5013978;28;19970;-72
2021/08/04 11:47:13;;;;;;;;;;;;;;;-144.99;57.12;52189.25;5014800;28;19982;-72
2021/08/04 11:49:41;;;;;;;;;;;;;;;-144.99;56.77;52162.75;5029178;28;20015;-72
2021/08/04 11:52:09;;;;;;;;;;;;;;;-144.99;56.76;52199.44;5017744;28;19991;-72
2021/08/04 11:54:37;;;;;;;;;;;;;;;-144.99;56.67;52187.19;5014440;28;20390;-71
2021/08/04 11:57:07;;;;;;;;;;;;;;;-144.99;56.25;52177.00;5019173;28;20219;-72
2021/08/04 11:59:44;;;;;;;;;;;;;;;-144.99;56.52;52132.19;5016524;28;20384;-72
2021/08/04 12:02:10;;;;;;;;;;;;;;;-144.99;56.23;52121.97;5020583;28;19982;-71
2021/08/04 12:04:42;;;;;;;;;;;;;;;-144.99;55.42;52174.97;5016770;28;19951;-72
2021/08/04 12:07:08;;;;;;;;;;;;;;;-144.99;54.20;52136.25;5026305;28;20318;-72
2021/08/04 12:09:35;;;;;;;;;;;;;;;-144.99;53.94;52126.06;5011523;28;20368;-72
2021/08/04 12:12:04;;;;;;;;;;;;;;;-144.99;53.79;52130.13;5009968;28;19925;-71
2021/08/04 12:14:32;;;;;;;;;;;;;;;-144.99;53.50;52101.59;5017977;28;20414;-71
2021/08/04 12:17:00;;;;;;;;;;;;;;;-144.99;51.58;52132.19;5024268;28;20409;-72
2021/08/04 12:19:31;;;;;;;;;;;;;;;-144.99;52.58;52130.13;5019167;28;20010;-72
2021/08/04 12:21:57;;;;;;;;;;;;;;;-144.99;51.46;52121.97;5010092;28;19978;-72
2021/08/04 12:24:24;;;;;;;;;;;;;;;-144.99;51.97;52117.91;5012752;28;19954;-72
2021/08/04 12:26:50;;;;;;;;;;;;;;;-144.99;52.34;52113.84;5010080;28;20002;-72
2021/08/04 12:29:23;;;;;;;;;;;;;;;-144.99;51.88;52138.28;5021421;28;20375;-72
2021/08/04 12:32:22;;;;;;;;;;;;;;;-144.99;51.41;52152.56;5014333;28;19985;-72
2021/08/04 12:34:57;;;;;;;;;;;;;;;-144.99;50.99;52117.91;4968566;28;19954;-72